Time;durP1;ratioP1;P1;durP2;ratioP2;P2;SDS_P1;SDS_P2;PMS_P1;PMS_P2;Temp;Humidity;BMP_temperature;BMP_pressure;BME280_temperature;BME280_humidity;BME280_pressure;Samples;Min_cycle;Max_cycle;Signal;HPM_P1;HPM_P2
2023/04/04 00:01:48;;;;;;;8.53;2.73;;;1.30;17.20;;;;;;5042468;28;20474;-65
2023/04/04 00:04:14;;;;;;;5.90;2.30;;;1.30;17.20;;;;;;5044499;28;20466;-65
2023/04/04 00:06:44;;;;;;;9.00;2.97;;;1.30;17.30;;;;;;5039670;28;20469;-65
2023/04/04 00:09:12;;;;;;;10.00;2.70;;;1.30;17.40;;;;;;5044137;28;20503;-65
2023/04/04 00:11:41;;;;;;;8.40;2.90;;;1.30;17.50;;;;;;5042523;28;20474;-65
2023/04/04 00:14:08;;;;;;;6.10;2.80;;;1.30;17.50;;;;;;5041198;28;20494;-65
2023/04/04 00:16:35;;;;;;;5.40;2.37;;;1.30;17.50;;;;;;5042275;28;20532;-65
2023/04/04 00:19:02;;;;;;;7.40;3.37;;;1.20;17.60;;;;;;5040318;28;20507;-65
2023/04/04 00:21:29;;;;;;;5.60;2.67;;;1.30;17.70;;;;;;5045015;28;20492;-65
2023/04/04 00:23:56;;;;;;;6.00;2.83;;;1.20;17.90;;;;;;5041296;28;20458;-65
2023/04/04 00:26:25;;;;;;;8.10;2.67;;;1.20;17.90;;;;;;5042395;28;20476;-65
2023/04/04 00:28:51;;;;;;;5.27;2.93;;;1.20;18.00;;;;;;5046947;28;20887;-65
2023/04/04 00:31:19;;;;;;;6.77;3.00;;;1.20;18.70;;;;;;5044118;28;20488;-65
2023/04/04 00:33:46;;;;;;;5.60;2.90;;;1.10;18.30;;;;;;5043583;28;20539;-65
2023/04/04 00:36:13;;;;;;;9.80;2.97;;;1.10;18.50;;;;;;5043970;28;20810;-65
2023/04/04 00:38:39;;;;;;;6.70;3.07;;;1.00;18.70;;;;;;5044273;28;20482;-65
2023/04/04 00:41:06;;;;;;;6.27;3.43;;;1.00;18.70;;;;;;5040257;28;20477;-65
2023/04/04 00:43:35;;;;;;;7.73;3.57;;;1.00;18.90;;;;;;5042846;28;20852;-65
2023/04/04 00:46:01;;;;;;;5.97;2.83;;;1.00;19.00;;;;;;5042687;28;20803;-65
2023/04/04 00:48:29;;;;;;;5.57;2.97;;;1.00;19.10;;;;;;5040352;28;20526;-65
2023/04/04 00:50:55;;;;;;;7.37;3.60;;;1.00;19.20;;;;;;5045013;28;20482;-65
2023/04/04 00:53:22;;;;;;;6.00;3.00;;;1.00;19.20;;;;;;5039091;28;20469;-65
2023/04/04 00:55:49;;;;;;;6.17;3.33;;;0.90;19.50;;;;;;5041592;28;20462;-65
2023/04/04 00:58:16;;;;;;;6.50;3.00;;;0.90;19.60;;;;;;5044582;28;20521;-65
2023/04/04 01:00:45;;;;;;;5.73;2.80;;;0.90;19.60;;;;;;5044281;28;20574;-65
2023/04/04 01:03:12;;;;;;;7.63;3.10;;;0.90;19.70;;;;;;5038151;28;20501;-65
2023/04/04 01:05:39;;;;;;;8.97;3.53;;;0.90;19.90;;;;;;5040779;28;20461;-65
2023/04/04 01:08:06;;;;;;;5.93;3.07;;;0.90;19.90;;;;;;5041933;28;20490;-65
2023/04/04 01:10:34;;;;;;;6.70;3.73;;;0.90;20.00;;;;;;5040565;28;20566;-65
2023/04/04 01:13:01;;;;;;;6.77;3.23;;;0.80;20.00;;;;;;5042769;28;20486;-65
2023/04/04 01:15:28;;;;;;;5.63;2.77;;;0.80;20.00;;;;;;5045402;28;20493;-65
2023/04/04 01:18:00;;;;;;;5.73;2.90;;;0.80;20.10;;;;;;5044631;28;20488;-65
2023/04/04 01:20:30;;;;;;;6.77;3.20;;;0.80;20.00;;;;;;5044537;28;20466;-65
2023/04/04 01:22:58;;;;;;;8.17;3.20;;;0.80;20.30;;;;;;5039187;28;20532;-65
2023/04/04 01:25:30;;;;;;;10.53;3.80;;;0.80;20.50;;;;;;5045135;28;20473;-65
2023/04/04 01:27:57;;;;;;;8.47;4.20;;;0.80;20.40;;;;;;5042465;28;20581;-65
2023/04/04 01:30:28;;;;;;;5.87;3.23;;;0.70;20.60;;;;;;5048433;28;20492;-66
2023/04/04 01:33:00;;;;;;;8.00;4.00;;;0.70;20.80;;;;;;5047375;28;20466;-65
2023/04/04 01:35:35;;;;;;;6.37;3.30;;;0.70;21.10;;;;;;5045178;28;20466;-65
2023/04/04 01:38:14;;;;;;;5.90;3.23;;;0.70;21.10;;;;;;5047312;28;20481;-65
2023/04/04 01:40:48;;;;;;;6.17;3.17;;;0.70;21.20;;;;;;5040596;28;20466;-65
2023/04/04 01:43:14;;;;;;;7.50;3.10;;;0.70;21.50;;;;;;5047980;28;20474;-65
2023/04/04 01:45:42;;;;;;;7.83;4.00;;;0.70;21.40;;;;;;5045013;28;20462;-65
2023/04/04 01:48:09;;;;;;;6.90;3.70;;;0.70;21.50;;;;;;5044562;28;20489;-65
2023/04/04 01:50:36;;;;;;;5.93;2.87;;;0.60;21.60;;;;;;5044069;28;21223;-65
2023/04/04 01:53:03;;;;;;;6.67;3.43;;;0.60;21.70;;;;;;5040975;28;20474;-65
2023/04/04 01:55:30;;;;;;;7.80;4.00;;;0.60;21.70;;;;;;5046415;28;20473;-65
2023/04/04 02:00:23;;;;;;;5.43;3.23;;;0.60;22.00;;;;;;5054443;22;20499;-66
2023/04/04 02:02:50;;;;;;;6.03;3.13;;;0.60;21.80;;;;;;5022044;28;20308;-66
2023/04/04 02:05:17;;;;;;;7.30;3.10;;;0.60;22.10;;;;;;5028646;28;20463;-65
2023/04/04 02:07:48;;;;;;;7.40;3.40;;;0.60;22.00;;;;;;5031237;28;20458;-66
2023/04/04 02:10:15;;;;;;;6.30;3.07;;;0.50;22.10;;;;;;5020125;28;20966;-66
2023/04/04 02:12:42;;;;;;;6.37;2.83;;;0.50;22.20;;;;;;5021169;28;20463;-65
2023/04/04 02:15:09;;;;;;;7.40;3.50;;;0.50;22.50;;;;;;5039791;22;20498;-65
2023/04/04 02:17:38;;;;;;;7.50;3.13;;;0.50;22.50;;;;;;5027405;28;20893;-64
2023/04/04 02:20:07;;;;;;;7.80;3.53;;;0.50;22.70;;;;;;5022890;28;21093;-64
2023/04/04 02:22:33;;;;;;;7.40;4.10;;;0.50;22.70;;;;;;5023604;28;20471;-64
2023/04/04 02:25:01;;;;;;;6.80;4.13;;;0.40;22.80;;;;;;5021153;28;20490;-64
2023/04/04 02:27:28;;;;;;;8.57;3.63;;;0.50;23.00;;;;;;5024652;28;20463;-64
2023/04/04 02:29:55;;;;;;;8.03;3.73;;;0.40;22.90;;;;;;5023264;28;20552;-64
2023/04/04 02:32:23;;;;;;;6.50;3.63;;;0.40;23.50;;;;;;5027211;28;20478;-64
2023/04/04 02:34:51;;;;;;;6.20;3.63;;;0.50;24.00;;;;;;5021451;28;20478;-64
2023/04/04 02:37:17;;;;;;;6.30;3.10;;;0.40;23.90;;;;;;5026441;28;20489;-64
2023/04/04 02:39:44;;;;;;;8.50;3.20;;;0.40;23.80;;;;;;5023825;28;20482;-64
2023/04/04 02:42:11;;;;;;;7.20;3.90;;;0.40;24.00;;;;;;5025410;28;20825;-64
2023/04/04 02:44:37;;;;;;;9.03;3.53;;;0.40;24.10;;;;;;5028263;28;20481;-64
2023/04/04 02:47:06;;;;;;;7.03;3.20;;;0.40;24.30;;;;;;5026629;28;20471;-64
2023/04/04 02:49:32;;;;;;;6.00;3.50;;;0.40;24.10;;;;;;5021669;28;20999;-64
2023/04/04 02:52:00;;;;;;;9.83;3.60;;;0.40;24.20;;;;;;5022550;28;20471;-64
2023/04/04 02:54:27;;;;;;;7.97;3.17;;;0.40;24.20;;;;;;5023389;28;20478;-65
2023/04/04 02:56:54;;;;;;;11.57;4.27;;;0.40;24.00;;;;;;5021445;28;20467;-65
2023/04/04 02:59:20;;;;;;;6.13;3.20;;;0.40;24.10;;;;;;5027583;28;20486;-64
2023/04/04 03:01:47;;;;;;;6.47;3.23;;;0.40;24.00;;;;;;5026365;28;21037;-64
2023/04/04 03:04:14;;;;;;;8.30;3.47;;;0.30;24.00;;;;;;5022961;28;20471;-64
2023/04/04 03:06:42;;;;;;;5.63;2.80;;;0.30;24.20;;;;;;5020811;28;20493;-64
2023/04/04 03:09:10;;;;;;;8.10;3.33;;;0.30;24.20;;;;;;5020960;28;20568;-64
2023/04/04 03:11:37;;;;;;;7.40;3.47;;;0.20;24.20;;;;;;5020652;28;20486;-64
2023/04/04 03:14:04;;;;;;;6.20;3.70;;;0.20;24.30;;;;;;5012176;28;20471;-64
2023/04/04 03:16:30;;;;;;;6.73;3.53;;;0.20;24.50;;;;;;5020181;28;20474;-64
2023/04/04 03:18:57;;;;;;;9.13;4.30;;;0.20;24.50;;;;;;5026292;28;20537;-64
2023/04/04 03:21:24;;;;;;;7.20;3.30;;;0.20;24.50;;;;;;5016121;28;20788;-64
2023/04/04 03:23:51;;;;;;;8.13;3.57;;;0.20;24.40;;;;;;5019894;28;20494;-64
2023/04/04 03:26:19;;;;;;;7.57;3.77;;;0.20;24.50;;;;;;5021586;28;20467;-64
2023/04/04 03:28:46;;;;;;;6.20;3.20;;;0.20;24.60;;;;;;5022580;28;20487;-64
2023/04/04 03:31:13;;;;;;;6.50;3.37;;;0.10;24.60;;;;;;5022436;28;21026;-64
2023/04/04 03:33:41;;;;;;;7.80;3.87;;;0.10;24.70;;;;;;5023217;28;20471;-64
2023/04/04 03:36:11;;;;;;;8.43;3.50;;;0.10;24.70;;;;;;5023892;28;20513;-64
2023/04/04 03:38:38;;;;;;;9.50;2.93;;;0.00;24.70;;;;;;5024357;28;20526;-64
2023/04/04 03:41:06;;;;;;;7.73;4.40;;;0.10;24.80;;;;;;5024121;28;20472;-64
2023/04/04 03:43:34;;;;;;;6.60;3.37;;;0.00;24.90;;;;;;5021158;28;20470;-64
2023/04/04 03:46:01;;;;;;;8.07;3.97;;;0.00;24.90;;;;;;5020794;28;20574;-64
2023/04/04 03:48:28;;;;;;;8.40;3.70;;;0.00;24.90;;;;;;5025306;28;20483;-64
2023/04/04 03:50:56;;;;;;;5.30;2.73;;;0.00;24.90;;;;;;5019600;28;20487;-64
2023/04/04 03:53:23;;;;;;;8.77;3.53;;;-0.10;25.70;;;;;;5022681;28;20962;-64
2023/04/04 03:55:50;;;;;;;6.23;3.30;;;0.00;25.20;;;;;;5020204;28;20463;-64
2023/04/04 03:58:16;;;;;;;13.20;3.87;;;-0.10;25.30;;;;;;5021057;28;20494;-67
2023/04/04 04:00:45;;;;;;;7.37;3.23;;;-0.10;25.50;;;;;;5027313;28;20470;-64
2023/04/04 04:03:11;;;;;;;5.50;3.00;;;-0.10;25.80;;;;;;5024141;28;20463;-64
2023/04/04 04:05:38;;;;;;;8.07;3.70;;;-0.10;25.80;;;;;;5022123;28;20485;-64
2023/04/04 04:08:05;;;;;;;7.17;3.20;;;-0.10;25.70;;;;;;5021319;28;20463;-65
2023/04/04 04:10:32;;;;;;;6.30;3.97;;;-0.10;25.70;;;;;;5025382;28;20487;-64
2023/04/04 04:13:00;;;;;;;6.40;3.03;;;-0.10;25.70;;;;;;5025135;28;20494;-64
2023/04/04 04:15:26;;;;;;;6.60;3.80;;;-0.20;25.60;;;;;;5020121;28;20819;-64
2023/04/04 04:17:55;;;;;;;6.37;3.20;;;-0.20;25.60;;;;;;5020572;28;20473;-64
2023/04/04 04:20:22;;;;;;;8.57;3.97;;;-0.20;25.60;;;;;;5023968;28;20468;-64
2023/04/04 04:22:49;;;;;;;8.00;4.43;;;-0.20;25.70;;;;;;5019646;28;20471;-64
2023/04/04 04:25:16;;;;;;;8.83;3.60;;;-0.20;25.70;;;;;;5022666;28;20485;-64
2023/04/04 04:27:44;;;;;;;8.07;3.90;;;-0.20;25.60;;;;;;5023169;28;20497;-64
2023/04/04 04:30:12;;;;;;;6.47;3.57;;;-0.20;25.60;;;;;;5017853;28;20491;-64
2023/04/04 04:32:39;;;;;;;5.80;3.30;;;-0.20;25.50;;;;;;5018282;28;20474;-64
2023/04/04 04:35:08;;;;;;;7.10;3.60;;;-0.20;25.50;;;;;;5022476;28;20534;-65
2023/04/04 04:37:35;;;;;;;8.38;3.85;;;-0.20;25.50;;;;;;5024044;28;20898;-65
2023/04/04 04:40:03;;;;;;;6.60;3.67;;;-0.20;26.30;;;;;;5021406;28;20287;-64
2023/04/04 04:42:30;;;;;;;6.23;3.63;;;-0.10;25.50;;;;;;5024617;28;20542;-65
2023/04/04 04:44:57;;;;;;;6.63;4.23;;;-0.10;25.30;;;;;;5027504;28;20568;-64
2023/04/04 04:47:23;;;;;;;8.00;4.70;;;-0.10;25.00;;;;;;5023288;28;20467;-64
2023/04/04 04:49:50;;;;;;;8.77;3.53;;;-0.10;24.90;;;;;;5019112;28;20487;-64
2023/04/04 04:52:19;;;;;;;8.03;3.40;;;-0.20;25.00;;;;;;5022352;28;21010;-64
2023/04/04 04:54:46;;;;;;;9.60;3.93;;;-0.20;24.90;;;;;;5025910;28;20544;-64
2023/04/04 04:57:13;;;;;;;5.83;3.07;;;-0.20;24.90;;;;;;5026570;28;20542;-64
2023/04/04 04:59:41;;;;;;;5.90;2.93;;;-0.20;24.90;;;;;;5024658;28;20486;-64
2023/04/04 05:02:08;;;;;;;6.90;3.87;;;-0.20;24.80;;;;;;5015000;28;20481;-64
2023/04/04 05:04:34;;;;;;;9.10;3.53;;;-0.20;24.90;;;;;;5025926;28;20462;-64
2023/04/04 05:07:01;;;;;;;10.43;3.90;;;-0.20;25.00;;;;;;5023869;28;21140;-64
2023/04/04 05:09:30;;;;;;;6.40;3.27;;;-0.10;25.00;;;;;;5024197;28;20495;-64
2023/04/04 05:11:56;;;;;;;6.93;3.37;;;-0.10;25.70;;;;;;5021726;28;20486;-64
2023/04/04 05:14:23;;;;;;;7.67;3.60;;;0.00;25.10;;;;;;5024546;28;21091;-64
2023/04/04 05:16:50;;;;;;;6.70;3.40;;;0.20;25.00;;;;;;5019015;28;20485;-64
2023/04/04 05:19:16;;;;;;;9.53;3.63;;;0.30;24.60;;;;;;5020901;28;20497;-64
2023/04/04 05:21:43;;;;;;;7.93;3.30;;;0.50;24.30;;;;;;5025361;28;21408;-64
2023/04/04 05:24:10;;;;;;;9.90;4.07;;;0.80;23.30;;;;;;5026247;28;20461;-65
2023/04/04 05:26:38;;;;;;;6.67;3.47;;;1.30;22.10;;;;;;5024849;28;20468;-64
2023/04/04 05:29:05;;;;;;;7.13;3.77;;;1.80;20.70;;;;;;5022916;28;20518;-64
2023/04/04 05:31:32;;;;;;;8.23;3.70;;;2.60;19.40;;;;;;5026726;28;20486;-64
2023/04/04 05:33:59;;;;;;;9.20;3.60;;;3.20;17.90;;;;;;5025405;28;20467;-64
2023/04/04 05:36:26;;;;;;;7.30;3.17;;;3.70;17.00;;;;;;5027070;28;20610;-64
2023/04/04 05:38:53;;;;;;;6.70;3.00;;;4.10;16.10;;;;;;5026038;28;20914;-64
2023/04/04 05:41:20;;;;;;;5.63;2.57;;;4.40;15.10;;;;;;5025672;28;20470;-64
2023/04/04 05:43:49;;;;;;;5.43;2.30;;;4.60;14.40;;;;;;5027046;28;20835;-64
2023/04/04 05:46:15;;;;;;;7.20;3.27;;;4.80;13.70;;;;;;5028128;28;20474;-64
2023/04/04 05:48:42;;;;;;;6.90;3.17;;;4.90;13.30;;;;;;5025510;28;20493;-64
2023/04/04 05:51:09;;;;;;;5.80;2.70;;;5.10;13.10;;;;;;5022625;28;20502;-64
2023/04/04 05:53:37;;;;;;;7.50;2.47;;;5.10;12.80;;;;;;5027443;28;20926;-64
2023/04/04 05:56:04;;;;;;;6.33;3.53;;;5.20;12.90;;;;;;5025564;28;20477;-64
2023/04/04 05:58:30;;;;;;;5.63;2.13;;;5.20;12.70;;;;;;5023474;28;20491;-64
2023/04/04 06:00:59;;;;;;;6.43;2.50;;;5.20;11.80;;;;;;5021096;28;20478;-64
2023/04/04 06:03:27;;;;;;;4.97;2.10;;;5.30;11.70;;;;;;5023943;28;20517;-64
2023/04/04 06:05:54;;;;;;;6.20;3.10;;;5.40;10.70;;;;;;5027657;28;20521;-65
2023/04/04 06:08:21;;;;;;;7.87;3.20;;;5.60;9.80;;;;;;5028345;28;20498;-65
2023/04/04 06:10:47;;;;;;;5.60;2.13;;;6.00;9.60;;;;;;5024304;28;20537;-65
2023/04/04 06:13:14;;;;;;;7.03;2.80;;;6.20;9.40;;;;;;5026873;28;20478;-64
2023/04/04 06:15:41;;;;;;;6.20;2.13;;;6.40;8.70;;;;;;5025292;28;20481;-64
2023/04/04 06:18:09;;;;;;;7.67;3.07;;;6.70;7.70;;;;;;5026127;28;20477;-64
2023/04/04 06:20:36;;;;;;;6.73;2.87;;;7.10;7.20;;;;;;5022196;28;20466;-64
2023/04/04 06:23:03;;;;;;;6.20;3.33;;;7.90;6.20;;;;;;5027349;28;20466;-64
2023/04/04 06:25:31;;;;;;;5.73;2.47;;;8.80;4.30;;;;;;5027623;28;20548;-64
2023/04/04 06:27:58;;;;;;;6.10;2.20;;;9.80;2.90;;;;;;5025945;28;20474;-64
2023/04/04 06:30:25;;;;;;;5.90;2.70;;;11.10;1.50;;;;;;5019601;28;20528;-64
2023/04/04 06:32:52;;;;;;;5.77;2.20;;;12.20;1.00;;;;;;5027858;28;20471;-64
2023/04/04 06:35:20;;;;;;;6.30;2.53;;;13.30;1.00;;;;;;5026333;28;20471;-66
2023/04/04 06:37:47;;;;;;;6.20;2.03;;;13.80;1.00;;;;;;5028157;28;20470;-65
2023/04/04 06:40:14;;;;;;;6.00;2.33;;;14.50;1.00;;;;;;5018398;28;21127;-65
2023/04/04 06:42:49;;;;;;;5.77;2.20;;;14.90;1.00;;;;;;5026076;28;20477;-65
2023/04/04 06:45:16;;;;;;;6.30;2.17;;;15.90;1.00;;;;;;5024754;28;20473;-64
2023/04/04 06:47:43;;;;;;;5.20;2.10;;;16.80;1.00;;;;;;5021618;28;20565;-64
2023/04/04 06:50:10;;;;;;;6.20;2.10;;;17.90;1.00;;;;;;5022747;28;20490;-64
2023/04/04 06:52:38;;;;;;;4.80;1.70;;;18.70;1.00;;;;;;5024671;28;20474;-64
2023/04/04 06:55:07;;;;;;;5.53;2.40;;;19.70;1.00;;;;;;5027036;28;20468;-65
2023/04/04 06:57:34;;;;;;;6.17;2.93;;;20.40;1.00;;;;;;5024231;28;20462;-64
2023/04/04 07:00:01;;;;;;;8.00;2.47;;;20.80;1.00;;;;;;5025631;28;20853;-65
2023/04/04 07:02:27;;;;;;;5.73;2.70;;;21.50;1.00;;;;;;5027715;28;20510;-64
2023/04/04 07:04:54;;;;;;;5.53;2.37;;;22.20;1.00;;;;;;5021230;28;20462;-64
2023/04/04 07:07:21;;;;;;;7.70;2.53;;;23.00;1.00;;;;;;5018004;28;20493;-65
2023/04/04 07:09:50;;;;;;;6.80;2.17;;;24.00;1.00;;;;;;5017792;28;20532;-65
2023/04/04 07:12:16;;;;;;;5.03;1.97;;;24.70;1.00;;;;;;5024773;28;21542;-66
2023/04/04 07:14:43;;;;;;;4.57;1.93;;;24.90;1.00;;;;;;5024917;28;20463;-66
2023/04/04 07:17:10;;;;;;;6.20;2.30;;;25.10;1.00;;;;;;5022996;28;20471;-64
2023/04/04 07:19:36;;;;;;;5.87;2.30;;;25.60;1.00;;;;;;5020926;28;21019;-65
2023/04/04 07:22:03;;;;;;;5.30;2.20;;;25.80;1.00;;;;;;5024177;28;20462;-64
2023/04/04 07:24:30;;;;;;;7.20;2.93;;;25.70;1.00;;;;;;5021824;28;21038;-65
2023/04/04 07:26:58;;;;;;;5.23;2.43;;;25.80;1.00;;;;;;5023528;28;20475;-65
2023/04/04 07:29:24;;;;;;;5.43;2.30;;;25.80;1.00;;;;;;5021989;28;20490;-66
2023/04/04 07:31:51;;;;;;;9.73;2.97;;;25.10;1.00;;;;;;5026766;28;20486;-65
2023/04/04 07:34:18;;;;;;;5.23;2.17;;;24.80;1.00;;;;;;5024030;28;20479;-65
2023/04/04 07:36:45;;;;;;;6.00;2.90;;;25.30;1.00;;;;;;5022802;28;20478;-65
2023/04/04 07:39:12;;;;;;;5.63;2.60;;;25.80;1.00;;;;;;5023311;28;20487;-65
2023/04/04 07:41:39;;;;;;;5.40;2.63;;;25.40;1.00;;;;;;5006978;28;20467;-64
2023/04/04 07:44:08;;;;;;;5.90;2.70;;;24.90;1.00;;;;;;5016036;28;20551;-65
2023/04/04 07:46:35;;;;;;;8.00;3.20;;;24.90;1.00;;;;;;5023098;28;20471;-65
2023/04/04 07:49:02;;;;;;;5.53;3.10;;;25.40;1.00;;;;;;5024069;28;20866;-66
2023/04/04 07:51:29;;;;;;;6.40;3.10;;;26.10;1.00;;;;;;5023611;28;20561;-65
2023/04/04 07:53:56;;;;;;;6.30;3.10;;;26.50;1.00;;;;;;5023799;28;20463;-65
2023/04/04 07:56:23;;;;;;;5.40;2.80;;;27.30;1.00;;;;;;5027740;28;20455;-67
2023/04/04 07:58:50;;;;;;;6.90;3.00;;;28.20;1.00;;;;;;5025935;28;20483;-67
2023/04/04 08:01:18;;;;;;;6.30;2.90;;;28.40;1.00;;;;;;5025497;28;20470;-67
2023/04/04 08:03:44;;;;;;;8.23;2.90;;;28.60;1.00;;;;;;5022189;28;20463;-67
2023/04/04 08:06:11;;;;;;;10.07;3.07;;;29.00;1.00;;;;;;5023988;28;20463;-67
2023/04/04 08:08:38;;;;;;;7.43;3.00;;;29.70;1.00;;;;;;5029627;28;20487;-67
2023/04/04 08:11:05;;;;;;;5.53;2.80;;;30.20;1.00;;;;;;5023127;28;20485;-66
2023/04/04 08:13:32;;;;;;;5.20;2.40;;;30.10;1.00;;;;;;5025445;28;20471;-66
2023/04/04 08:15:58;;;;;;;8.67;2.90;;;29.10;1.00;;;;;;5023835;28;20475;-66
2023/04/04 08:18:27;;;;;;;5.47;2.53;;;27.00;1.00;;;;;;5026900;28;21023;-66
2023/04/04 08:20:54;;;;;;;4.70;2.20;;;26.50;1.00;;;;;;5025319;28;20490;-66
2023/04/04 08:23:20;;;;;;;6.10;2.80;;;25.20;1.00;;;;;;5025208;28;20471;-66
2023/04/04 08:25:47;;;;;;;5.30;2.70;;;25.00;1.00;;;;;;5026914;28;20481;-66
2023/04/04 08:28:14;;;;;;;6.17;3.10;;;25.60;1.00;;;;;;5023379;28;20491;-65
2023/04/04 08:30:41;;;;;;;5.73;3.00;;;26.40;1.00;;;;;;5015935;28;21013;-66
2023/04/04 08:33:08;;;;;;;5.10;2.80;;;27.60;1.00;;;;;;5024776;28;20470;-66
2023/04/04 08:35:36;;;;;;;5.80;2.70;;;28.80;1.00;;;;;;5025871;28;20521;-66
2023/04/04 08:38:05;;;;;;;6.47;2.77;;;29.10;1.00;;;;;;5034718;22;20526;-70
2023/04/04 08:40:31;;;;;;;5.20;2.37;;;29.00;1.00;;;;;;5038940;28;20955;-70
2023/04/04 08:42:59;;;;;;;6.57;3.17;;;29.00;1.00;;;;;;5043368;28;20465;-68
2023/04/04 08:45:27;;;;;;;7.23;3.03;;;28.40;1.00;;;;;;5038350;28;20471;-68
2023/04/04 08:47:58;;;;;;;5.80;2.97;;;27.90;1.00;;;;;;5046428;28;20983;-69
2023/04/04 08:50:25;;;;;;;6.83;2.93;;;27.20;1.00;;;;;;5038365;28;20466;-68
2023/04/04 08:52:54;;;;;;;6.30;2.77;;;26.80;1.00;;;;;;5042683;28;20495;-69
2023/04/04 08:55:21;;;;;;;5.43;3.00;;;25.30;1.00;;;;;;5041952;28;20978;-68
2023/04/04 08:57:48;;;;;;;6.90;2.80;;;25.00;1.00;;;;;;5054105;28;20473;-67
2023/04/04 09:00:16;;;;;;;6.63;3.20;;;26.10;1.00;;;;;;5041034;28;20490;-68
2023/04/04 09:02:56;;;;;;;5.77;2.63;;;25.40;1.00;;;;;;5039669;28;20457;-68
2023/04/04 09:05:24;;;;;;;5.93;2.60;;;22.90;1.00;;;;;;5038812;28;20473;-67
2023/04/04 09:07:51;;;;;;;6.00;2.73;;;20.70;1.00;;;;;;5040634;28;20566;-67
2023/04/04 09:10:19;;;;;;;5.97;2.90;;;21.60;1.00;;;;;;5041463;28;20525;-67
2023/04/04 09:12:48;;;;;;;8.30;2.80;;;22.00;1.00;;;;;;5039364;28;20513;-67
2023/04/04 09:15:15;;;;;;;7.30;3.30;;;20.30;1.00;;;;;;5037791;28;20462;-67
2023/04/04 09:17:42;;;;;;;7.20;2.90;;;18.10;1.00;;;;;;5038011;28;20501;-66
2023/04/04 09:20:35;;;;;;;7.63;2.87;;;16.00;1.00;;;;;;5036298;28;20570;-68
2023/04/04 09:23:05;;;;;;;7.20;2.50;;;15.30;1.00;;;;;;5043435;28;20458;-68
2023/04/04 09:25:33;;;;;;;6.80;3.43;;;15.40;1.00;;;;;;5040730;28;20476;-68
2023/04/04 09:28:01;;;;;;;5.87;2.87;;;14.80;1.00;;;;;;5043715;28;20466;-66
2023/04/04 09:30:28;;;;;;;9.50;4.03;;;14.20;1.00;;;;;;5045489;28;20501;-67
2023/04/04 09:32:57;;;;;;;5.83;2.87;;;14.20;1.00;;;;;;5040513;28;20483;-67
2023/04/04 09:35:24;;;;;;;7.00;3.10;;;14.10;1.00;;;;;;5046744;28;20468;-66
2023/04/04 09:37:51;;;;;;;7.40;3.10;;;14.30;1.00;;;;;;5042606;28;20470;-67
2023/04/04 09:40:18;;;;;;;11.97;3.17;;;15.60;1.00;;;;;;5044181;28;20513;-66
2023/04/04 09:42:47;;;;;;;5.40;2.40;;;17.00;1.00;;;;;;5041708;28;20818;-68
2023/04/04 09:45:15;;;;;;;6.00;3.00;;;17.80;1.00;;;;;;5041873;28;20459;-68
2023/04/04 09:47:42;;;;;;;6.00;2.97;;;18.70;1.00;;;;;;5045237;28;20470;-67
2023/04/04 09:50:10;;;;;;;6.97;2.57;;;18.00;1.00;;;;;;5062452;28;20492;-68
2023/04/04 09:52:37;;;;;;;6.13;3.70;;;16.80;1.00;;;;;;5060670;28;20572;-69
2023/04/04 09:55:05;;;;;;;5.67;2.43;;;17.50;1.00;;;;;;5043573;28;20878;-68
2023/04/04 09:57:34;;;;;;;6.37;3.30;;;20.30;1.00;;;;;;5045992;28;20520;-68
2023/04/04 10:00:09;;;;;;;5.80;3.00;;;22.40;1.00;;;;;;5037278;28;20492;-67
2023/04/04 10:02:37;;;;;;;8.50;2.90;;;20.10;1.00;;;;;;5048543;28;20474;-68
2023/04/04 10:05:05;;;;;;;6.10;3.00;;;18.60;1.00;;;;;;5041651;28;20486;-68
2023/04/04 10:07:33;;;;;;;5.53;2.77;;;17.90;1.00;;;;;;5046838;28;20464;-68
2023/04/04 10:10:02;;;;;;;5.40;2.80;;;16.80;1.00;;;;;;5038330;28;20493;-65
2023/04/04 10:12:31;;;;;;;5.67;3.30;;;15.90;1.00;;;;;;5038271;28;20509;-65
2023/04/04 10:14:59;;;;;;;5.57;3.27;;;14.90;1.00;;;;;;5042352;28;20918;-67
2023/04/04 10:17:30;;;;;;;7.37;3.10;;;14.30;1.00;;;;;;5038557;28;20987;-68
2023/04/04 10:19:59;;;;;;;6.90;3.57;;;13.90;1.00;;;;;;5042217;28;20849;-67
2023/04/04 10:22:27;;;;;;;6.50;3.63;;;13.00;1.00;;;;;;5037514;28;20459;-68
2023/04/04 10:24:54;;;;;;;6.37;3.00;;;12.10;1.00;;;;;;5044171;28;20977;-67
2023/04/04 10:27:21;;;;;;;6.30;3.20;;;11.60;1.00;;;;;;5044585;28;20549;-67
2023/04/04 10:29:49;;;;;;;6.03;3.27;;;11.30;1.00;;;;;;5040578;28;20540;-68
2023/04/04 10:32:24;;;;;;;7.03;4.03;;;11.30;1.00;;;;;;5044751;28;20470;-67
2023/04/04 10:35:00;;;;;;;9.13;3.70;;;11.90;1.00;;;;;;5038549;28;20490;-66
2023/04/04 10:37:28;;;;;;;6.60;3.40;;;12.90;1.00;;;;;;5040260;28;20471;-67
2023/04/04 10:40:03;;;;;;;5.53;2.80;;;15.80;1.00;;;;;;5038544;28;20485;-67
2023/04/04 10:42:35;;;;;;;7.13;3.60;;;15.60;1.00;;;;;;5040652;28;20542;-67
2023/04/04 10:45:02;;;;;;;7.17;2.90;;;15.00;1.00;;;;;;5038549;28;20469;-68
2023/04/04 10:47:30;;;;;;;8.50;2.87;;;15.00;1.00;;;;;;5047357;28;20473;-68
2023/04/04 10:49:59;;;;;;;6.10;3.40;;;17.10;1.00;;;;;;5043960;28;20480;-68
2023/04/04 10:52:28;;;;;;;6.30;2.87;;;18.00;1.00;;;;;;5037129;28;20478;-67
2023/04/04 10:54:59;;;;;;;8.97;3.33;;;19.00;1.00;;;;;;5040089;28;20540;-68
2023/04/04 10:57:28;;;;;;;12.53;3.67;;;19.90;1.00;;;;;;5042857;28;20496;-68
2023/04/04 10:59:58;;;;;;;6.90;3.20;;;18.40;1.00;;;;;;5041287;28;20994;-67
2023/04/04 11:02:45;;;;;;;5.43;2.97;;;17.90;1.00;;;;;;5041811;28;20465;-68
2023/04/04 11:05:18;;;;;;;7.30;3.80;;;18.80;1.00;;;;;;5039779;28;20980;-67
2023/04/04 11:07:46;;;;;;;6.60;3.70;;;18.60;1.00;;;;;;5031552;28;20541;-68
2023/04/04 11:10:21;;;;;;;6.30;3.10;;;20.00;1.00;;;;;;5045934;28;20487;-67
2023/04/04 11:12:53;;;;;;;7.03;4.00;;;19.00;1.00;;;;;;5042200;28;20486;-68
2023/04/04 11:15:22;;;;;;;6.63;3.57;;;17.80;1.00;;;;;;5044202;28;20471;-68
2023/04/04 11:17:55;;;;;;;5.70;3.10;;;19.00;1.00;;;;;;5042578;28;20951;-67
2023/04/04 11:20:25;;;;;;;7.10;3.40;;;19.30;1.00;;;;;;5045430;28;20969;-67
2023/04/04 11:23:06;;;;;;;5.60;3.00;;;18.70;1.00;;;;;;5042963;28;20939;-68
2023/04/04 11:25:34;;;;;;;7.07;3.17;;;16.70;1.00;;;;;;5048578;28;20772;-67
2023/04/04 11:28:09;;;;;;;5.27;2.97;;;15.30;1.00;;;;;;5044658;28;20454;-68
2023/04/04 11:30:43;;;;;;;6.50;4.10;;;14.20;1.00;;;;;;5040128;28;20457;-66
2023/04/04 11:33:13;;;;;;;6.20;3.33;;;13.50;1.00;;;;;;5043669;28;20469;-67
2023/04/04 11:35:47;;;;;;;5.97;3.10;;;13.10;1.00;;;;;;5043132;28;20490;-67
2023/04/04 11:38:15;;;;;;;5.97;3.20;;;12.80;1.00;;;;;;5040780;28;20524;-68
2023/04/04 11:40:52;;;;;;;7.80;3.90;;;12.70;1.00;;;;;;5038738;28;20463;-68
2023/04/04 11:43:19;;;;;;;7.27;4.10;;;12.50;1.00;;;;;;5026809;28;20462;-67
2023/04/04 11:45:47;;;;;;;7.50;3.60;;;11.90;1.00;;;;;;5036161;28;20497;-68
2023/04/04 11:48:17;;;;;;;6.50;3.40;;;11.60;1.00;;;;;;5041671;28;20479;-68
2023/04/04 11:50:48;;;;;;;9.23;3.63;;;11.50;1.00;;;;;;5040493;28;20620;-66
2023/04/04 11:53:16;;;;;;;6.57;3.40;;;11.30;1.00;;;;;;5036549;28;20481;-69
2023/04/04 11:55:46;;;;;;;7.03;3.60;;;11.30;1.00;;;;;;5038079;28;20471;-66
2023/04/04 11:58:14;;;;;;;6.53;3.30;;;11.30;1.00;;;;;;5036308;28;20535;-68
2023/04/04 12:00:42;;;;;;;7.30;3.63;;;11.30;1.00;;;;;;5040932;28;20473;-68
2023/04/04 12:03:11;;;;;;;6.80;3.90;;;11.20;1.00;;;;;;5039051;28;20458;-68
2023/04/04 12:05:38;;;;;;;6.43;3.60;;;11.00;1.00;;;;;;5036640;28;20475;-68
2023/04/04 12:08:09;;;;;;;7.03;3.90;;;10.80;1.00;;;;;;5040673;28;20485;-66
2023/04/04 12:10:37;;;;;;;6.60;3.57;;;10.70;1.00;;;;;;5034827;28;21088;-67
2023/04/04 12:13:07;;;;;;;6.80;3.57;;;10.70;1.00;;;;;;5042369;28;20567;-68
2023/04/04 12:15:34;;;;;;;7.10;3.60;;;10.80;1.00;;;;;;5040810;28;20490;-66
2023/04/04 12:18:02;;;;;;;7.73;3.73;;;10.80;1.00;;;;;;5039738;28;20462;-67
2023/04/04 12:20:29;;;;;;;6.47;3.27;;;10.70;1.00;;;;;;5042623;28;20512;-68
2023/04/04 12:22:56;;;;;;;6.70;3.30;;;10.50;1.00;;;;;;5039359;28;20454;-67
2023/04/04 12:25:27;;;;;;;6.57;3.30;;;10.40;1.00;;;;;;5041944;28;20475;-68
2023/04/04 12:27:55;;;;;;;8.10;3.83;;;10.50;1.00;;;;;;5049543;28;20458;-68
2023/04/04 12:30:22;;;;;;;6.50;3.37;;;10.50;1.00;;;;;;5037250;28;20545;-67
2023/04/04 12:32:50;;;;;;;7.40;3.90;;;10.50;1.00;;;;;;5041146;28;20478;-66
2023/04/04 12:35:17;;;;;;;7.83;4.33;;;10.50;1.00;;;;;;5040832;28;20470;-67
2023/04/04 12:38:01;;;;;;;7.43;3.27;;;10.40;1.00;;;;;;5044527;28;20474;-67
2023/04/04 12:40:37;;;;;;;6.87;3.93;;;10.10;1.00;;;;;;5028899;28;20958;-68
2023/04/04 12:43:04;;;;;;;7.87;4.00;;;10.10;1.00;;;;;;5037893;28;20462;-67
2023/04/04 12:45:32;;;;;;;7.13;3.97;;;9.90;1.00;;;;;;5038671;28;20466;-67
2023/04/04 12:47:58;;;;;;;6.30;3.20;;;9.80;1.00;;;;;;5034089;28;20471;-68
2023/04/04 12:50:28;;;;;;;7.60;3.90;;;9.70;1.00;;;;;;5034872;28;21007;-67
2023/04/04 12:52:54;;;;;;;7.03;3.47;;;9.70;1.00;;;;;;5039738;28;20492;-66
2023/04/04 12:55:23;;;;;;;5.50;3.03;;;9.60;1.00;;;;;;5039642;28;20487;-68
2023/04/04 12:57:51;;;;;;;7.50;3.50;;;9.60;1.00;;;;;;5041637;28;20485;-67
2023/04/04 13:00:21;;;;;;;6.33;3.40;;;9.50;1.00;;;;;;5036273;28;20466;-68
2023/04/04 13:02:50;;;;;;;8.40;3.83;;;9.50;1.00;;;;;;5039395;28;20851;-69